Time;durP1;ratioP1;P1;durP2;ratioP2;P2;SDS_P1;SDS_P2;PMS_P1;PMS_P2;Temp;Humidity;BMP_temperature;BMP_pressure;BME280_temperature;BME280_humidity;BME280_pressure;Samples;Min_cycle;Max_cycle;Signal;HPM_P1;HPM_P2
2022/03/09 00:02:46;;;;;;;15.13;6.50;;;;;;;;;;6221672;28;20467;-77
2022/03/09 00:05:48;;;;;;;15.90;7.32;;;;;;;;;;6222892;28;20060;-78
2022/03/09 00:08:50;;;;;;;18.20;7.55;;;;;;;;;;6222548;28;20128;-78
2022/03/09 00:11:53;;;;;;;15.13;6.75;;;;;;;;;;6224006;28;20188;-78
2022/03/09 00:14:54;;;;;;;11.50;5.77;;;;;;;;;;6223244;28;20364;-79
2022/03/09 00:17:56;;;;;;;9.15;4.82;;;;;;;;;;6253065;28;20061;-78
2022/03/09 00:20:58;;;;;;;12.68;4.95;;;;;;;;;;6221035;28;20109;-77
2022/03/09 00:24:03;;;;;;;16.95;5.75;;;;;;;;;;6237144;28;20050;-77
2022/03/09 00:27:05;;;;;;;10.00;5.20;;;;;;;;;;6222069;28;20109;-77
2022/03/09 00:30:07;;;;;;;9.52;5.57;;;;;;;;;;6221598;28;20136;-78
2022/03/09 00:33:09;;;;;;;10.18;4.80;;;;;;;;;;6225081;28;20041;-80
2022/03/09 00:36:10;;;;;;;10.90;5.88;;;;;;;;;;6274240;28;20057;-78
2022/03/09 00:39:13;;;;;;;12.82;5.75;;;;;;;;;;6227122;28;20046;-79
2022/03/09 00:42:15;;;;;;;11.10;5.82;;;;;;;;;;6225832;28;20121;-79
2022/03/09 00:45:16;;;;;;;15.90;6.80;;;;;;;;;;6251259;28;20128;-77
2022/03/09 00:48:18;;;;;;;12.50;5.72;;;;;;;;;;6250975;28;20045;-78
2022/03/09 00:51:20;;;;;;;11.20;4.90;;;;;;;;;;6242082;28;20121;-79
2022/03/09 00:54:21;;;;;;;10.38;5.47;;;;;;;;;;6225955;28;20068;-76
2022/03/09 00:57:23;;;;;;;11.73;4.97;;;;;;;;;;6224908;28;20049;-77
2022/03/09 01:00:24;;;;;;;11.95;5.25;;;;;;;;;;6224486;28;20109;-79
2022/03/09 01:03:26;;;;;;;11.23;5.63;;;;;;;;;;6225436;28;20580;-77
2022/03/09 01:06:28;;;;;;;11.15;5.32;;;;;;;;;;6234008;28;20132;-77
2022/03/09 01:09:30;;;;;;;11.98;5.95;;;;;;;;;;6248879;28;20041;-80
2022/03/09 01:12:32;;;;;;;10.88;6.00;;;;;;;;;;6238430;28;20049;-76
2022/03/09 01:15:34;;;;;;;15.30;5.93;;;;;;;;;;6225652;28;20069;-77
2022/03/09 01:18:36;;;;;;;12.43;5.97;;;;;;;;;;6223321;28;20087;-79
2022/03/09 01:21:37;;;;;;;10.73;5.18;;;;;;;;;;6223260;28;20096;-78
2022/03/09 01:24:39;;;;;;;14.75;6.40;;;;;;;;;;6225679;28;20197;-77
2022/03/09 01:27:41;;;;;;;12.18;5.55;;;;;;;;;;6232344;28;20045;-78
2022/03/09 01:30:42;;;;;;;12.52;5.82;;;;;;;;;;6232343;28;20097;-79
2022/03/09 01:33:44;;;;;;;14.85;6.80;;;;;;;;;;6240505;28;20048;-77
2022/03/09 01:36:45;;;;;;;16.02;7.20;;;;;;;;;;6245940;28;20053;-77
2022/03/09 01:39:47;;;;;;;15.10;6.18;;;;;;;;;;6249449;28;20065;-79
2022/03/09 01:42:49;;;;;;;13.00;6.15;;;;;;;;;;6249362;28;20454;-79
2022/03/09 01:45:50;;;;;;;16.27;7.00;;;;;;;;;;6248921;28;20562;-76
2022/03/09 01:48:52;;;;;;;17.17;6.93;;;;;;;;;;6227876;28;20128;-76
2022/03/09 01:51:57;;;;;;;14.57;6.47;;;;;;;;;;6226292;28;20144;-77
2022/03/09 01:54:59;;;;;;;11.23;6.45;;;;;;;;;;6225841;28;20050;-78
2022/03/09 01:58:01;;;;;;;16.30;6.75;;;;;;;;;;6219662;28;20288;-78
2022/03/09 02:01:03;;;;;;;16.15;6.18;;;;;;;;;;6248211;28;20084;-77
2022/03/09 02:04:07;;;;;;;16.27;5.72;;;;;;;;;;6244436;28;20053;-78
2022/03/09 02:07:09;;;;;;;15.10;6.60;;;;;;;;;;6225201;28;20049;-78
2022/03/09 02:10:11;;;;;;;12.05;6.45;;;;;;;;;;6223387;28;20045;-80
2022/03/09 02:13:13;;;;;;;12.48;6.10;;;;;;;;;;6260484;28;20037;-77
2022/03/09 02:16:16;;;;;;;14.10;6.07;;;;;;;;;;6201339;28;20046;-79
2022/03/09 02:19:18;;;;;;;12.63;5.50;;;;;;;;;;6225615;28;20046;-79
2022/03/09 02:22:19;;;;;;;8.40;4.78;;;;;;;;;;6224671;28;20076;-79
2022/03/09 02:25:21;;;;;;;13.18;5.55;;;;;;;;;;6225360;28;20467;-77
2022/03/09 02:28:22;;;;;;;12.18;5.43;;;;;;;;;;6224045;28;20058;-77
2022/03/09 02:31:24;;;;;;;14.07;5.97;;;;;;;;;;6224194;28;20053;-77
2022/03/09 02:34:27;;;;;;;12.27;5.47;;;;;;;;;;6225114;28;20049;-79
2022/03/09 02:37:28;;;;;;;11.30;5.63;;;;;;;;;;6230629;28;20566;-80
2022/03/09 02:40:30;;;;;;;9.98;5.38;;;;;;;;;;6241940;28;20506;-77
2022/03/09 02:43:32;;;;;;;9.25;5.10;;;;;;;;;;6250998;28;20566;-78
2022/03/09 02:46:33;;;;;;;12.10;5.28;;;;;;;;;;6246590;28;20093;-78
2022/03/09 02:49:35;;;;;;;7.38;4.93;;;;;;;;;;6229010;28;20052;-79
2022/03/09 02:52:39;;;;;;;8.45;4.78;;;;;;;;;;6229451;28;20038;-78
2022/03/09 02:55:41;;;;;;;11.57;5.45;;;;;;;;;;6246321;28;20097;-80
2022/03/09 02:58:44;;;;;;;10.75;5.00;;;;;;;;;;6242340;28;20069;-80
2022/03/09 03:01:46;;;;;;;9.80;5.00;;;;;;;;;;6260579;28;20106;-79
2022/03/09 03:04:47;;;;;;;9.93;5.25;;;;;;;;;;6213872;28;20066;-81
2022/03/09 03:07:49;;;;;;;11.02;5.45;;;;;;;;;;6229075;28;20129;-78
2022/03/09 03:10:51;;;;;;;11.15;5.15;;;;;;;;;;6243454;28;20090;-80
2022/03/09 03:13:54;;;;;;;9.95;5.10;;;;;;;;;;6232426;28;20129;-78
2022/03/09 03:16:55;;;;;;;12.27;5.78;;;;;;;;;;6228113;28;20129;-77
2022/03/09 03:19:57;;;;;;;12.02;4.95;;;;;;;;;;6226565;28;20048;-81
2022/03/09 03:22:58;;;;;;;14.75;5.95;;;;;;;;;;6242234;28;20048;-78
2022/03/09 03:26:02;;;;;;;8.77;4.60;;;;;;;;;;6253907;28;20053;-79
2022/03/09 03:29:05;;;;;;;12.88;5.97;;;;;;;;;;6228870;28;20054;-80
2022/03/09 03:32:07;;;;;;;11.82;5.30;;;;;;;;;;6227144;28;20506;-78
2022/03/09 03:35:10;;;;;;;12.77;5.82;;;;;;;;;;6228471;28;20976;-80
2022/03/09 03:38:12;;;;;;;11.85;5.55;;;;;;;;;;6228272;28;20065;-78
2022/03/09 03:41:14;;;;;;;18.98;6.60;;;;;;;;;;6242608;28;20124;-78
2022/03/09 03:44:15;;;;;;;12.25;6.05;;;;;;;;;;6226841;28;20105;-77
2022/03/09 03:47:17;;;;;;;14.35;6.60;;;;;;;;;;6234055;28;20045;-80
2022/03/09 03:50:19;;;;;;;12.27;5.65;;;;;;;;;;6252378;28;20037;-79
2022/03/09 03:53:21;;;;;;;11.23;5.80;;;;;;;;;;6235684;28;20046;-78
2022/03/09 03:56:22;;;;;;;14.57;6.00;;;;;;;;;;6226446;28;20121;-78
2022/03/09 03:59:24;;;;;;;13.10;5.50;;;;;;;;;;6234212;28;20511;-77
2022/03/09 04:02:25;;;;;;;11.00;5.68;;;;;;;;;;6231129;28;20085;-77
2022/03/09 04:05:28;;;;;;;12.10;5.80;;;;;;;;;;6227683;28;20050;-78
2022/03/09 04:08:30;;;;;;;14.83;6.53;;;;;;;;;;6224867;28;20103;-77
2022/03/09 04:11:31;;;;;;;12.48;6.25;;;;;;;;;;6225087;28;20173;-80
2022/03/09 04:14:36;;;;;;;17.38;6.80;;;;;;;;;;6233670;28;20046;-79
2022/03/09 04:17:43;;;;;;;16.60;6.47;;;;;;;;;;6249622;28;20132;-78
2022/03/09 04:20:45;;;;;;;16.67;6.07;;;;;;;;;;6224073;28;20225;-80
2022/03/09 04:23:46;;;;;;;16.98;7.07;;;;;;;;;;6224300;28;20050;-80
2022/03/09 04:26:48;;;;;;;14.48;7.13;;;;;;;;;;6222215;28;20191;-79
2022/03/09 04:29:50;;;;;;;11.00;5.95;;;;;;;;;;6219686;28;20053;-79
2022/03/09 04:32:52;;;;;;;16.45;6.90;;;;;;;;;;6224894;28;20103;-77
2022/03/09 04:35:53;;;;;;;15.77;6.53;;;;;;;;;;6223579;28;20053;-80
2022/03/09 04:38:55;;;;;;;17.52;6.95;;;;;;;;;;6240761;28;20125;-77
2022/03/09 04:41:57;;;;;;;18.05;7.38;;;;;;;;;;6234613;28;20038;-78
2022/03/09 04:44:58;;;;;;;17.33;7.00;;;;;;;;;;6247084;28;20119;-79
2022/03/09 04:48:00;;;;;;;11.90;5.78;;;;;;;;;;6245316;28;20049;-80
2022/03/09 04:51:02;;;;;;;35.63;11.90;;;;;;;;;;6246372;28;20057;-79
2022/03/09 04:54:04;;;;;;;22.13;7.55;;;;;;;;;;6277693;28;20042;-79
2022/03/09 04:57:06;;;;;;;18.42;7.55;;;;;;;;;;6239624;28;20522;-79
2022/03/09 05:00:08;;;;;;;13.18;6.28;;;;;;;;;;6221039;28;20119;-79
2022/03/09 05:03:10;;;;;;;12.90;6.13;;;;;;;;;;6224506;28;20065;-78
2022/03/09 05:06:14;;;;;;;12.98;5.60;;;;;;;;;;6220708;28;20127;-77
2022/03/09 05:09:16;;;;;;;12.77;5.72;;;;;;;;;;6220405;28;20085;-78
2022/03/09 05:12:17;;;;;;;16.45;6.20;;;;;;;;;;6221742;28;20121;-79
2022/03/09 05:15:19;;;;;;;12.90;6.55;;;;;;;;;;6221456;28;20053;-80
2022/03/09 05:18:25;;;;;;;12.30;5.53;;;;;;;;;;6222107;28;20070;-80
2022/03/09 05:21:27;;;;;;;15.05;7.13;;;;;;;;;;6220948;28;20112;-78
2022/03/09 05:24:29;;;;;;;18.60;7.40;;;;;;;;;;6222416;28;20085;-78
2022/03/09 05:27:31;;;;;;;13.80;6.43;;;;;;;;;;6219690;28;20188;-77
2022/03/09 05:30:33;;;;;;;14.98;5.93;;;;;;;;;;6219945;28;20053;-78
2022/03/09 05:33:34;;;;;;;13.43;6.30;;;;;;;;;;6219039;28;20049;-79
2022/03/09 05:36:36;;;;;;;13.02;5.78;;;;;;;;;;6217294;28;20056;-80
2022/03/09 05:39:38;;;;;;;15.75;7.00;;;;;;;;;;6218419;28;20088;-77
2022/03/09 05:42:40;;;;;;;16.33;7.30;;;;;;;;;;6232914;28;20121;-77
2022/03/09 05:45:42;;;;;;;17.65;7.68;;;;;;;;;;6217665;28;20066;-79
2022/03/09 05:48:44;;;;;;;15.38;7.63;;;;;;;;;;6219959;28;20535;-79
2022/03/09 05:51:46;;;;;;;17.45;7.28;;;;;;;;;;6233372;28;20165;-78
2022/03/09 05:54:47;;;;;;;21.38;7.63;;;;;;;;;;6219993;28;20470;-79
2022/03/09 05:57:49;;;;;;;14.02;6.45;;;;;;;;;;6216476;28;20140;-77
2022/03/09 06:00:52;;;;;;;15.15;6.65;;;;;;;;;;6212397;28;20041;-79
2022/03/09 06:03:54;;;;;;;15.43;6.38;;;;;;;;;;6216793;28;20219;-77
2022/03/09 06:06:56;;;;;;;12.35;6.90;;;;;;;;;;6226049;28;20042;-79
2022/03/09 06:09:58;;;;;;;15.82;5.78;;;;;;;;;;6209004;28;20526;-79
2022/03/09 06:13:00;;;;;;;13.95;6.47;;;;;;;;;;6209152;28;20128;-77
2022/03/09 06:16:01;;;;;;;15.82;6.75;;;;;;;;;;6209703;28;20128;-77
2022/03/09 06:19:04;;;;;;;16.30;6.32;;;;;;;;;;6213111;28;20053;-77
2022/03/09 06:22:06;;;;;;;12.65;6.80;;;;;;;;;;6217524;28;20095;-78
2022/03/09 06:25:08;;;;;;;24.33;9.75;;;;;;;;;;6234198;28;20053;-79
2022/03/09 06:28:09;;;;;;;25.48;9.90;;;;;;;;;;6238181;28;20140;-78
2022/03/09 06:31:11;;;;;;;20.48;9.60;;;;;;;;;;6214533;28;20137;-79
2022/03/09 06:34:13;;;;;;;16.13;7.55;;;;;;;;;;6210368;28;20129;-79
2022/03/09 06:37:14;;;;;;;24.40;9.85;;;;;;;;;;6213925;28;20450;-78
2022/03/09 06:40:16;;;;;;;32.50;13.32;;;;;;;;;;6214186;28;20159;-78
2022/03/09 06:43:18;;;;;;;17.30;9.88;;;;;;;;;;6214320;28;20052;-77
2022/03/09 06:46:19;;;;;;;31.65;15.48;;;;;;;;;;6221983;28;20044;-79
2022/03/09 06:49:21;;;;;;;23.05;12.05;;;;;;;;;;6239975;28;20124;-77
2022/03/09 06:52:23;;;;;;;19.67;10.52;;;;;;;;;;6215660;28;20045;-79
2022/03/09 06:55:24;;;;;;;19.73;9.57;;;;;;;;;;6212976;28;20392;-76
2022/03/09 06:58:26;;;;;;;16.70;8.13;;;;;;;;;;6212056;28;20091;-77
2022/03/09 07:01:28;;;;;;;19.23;8.93;;;;;;;;;;6208290;28;20045;-77
2022/03/09 07:04:30;;;;;;;17.73;7.38;;;;;;;;;;6207961;28;20437;-79
2022/03/09 07:07:32;;;;;;;18.52;8.70;;;;;;;;;;6212813;28;20110;-78
2022/03/09 07:10:34;;;;;;;18.60;8.98;;;;;;;;;;6207348;28;20045;-76
2022/03/09 07:13:35;;;;;;;20.75;8.93;;;;;;;;;;6211940;28;20134;-77
2022/03/09 07:16:37;;;;;;;17.42;9.40;;;;;;;;;;6212249;28;20157;-77
2022/03/09 07:19:39;;;;;;;19.58;9.27;;;;;;;;;;6211047;28;20046;-77
2022/03/09 07:22:43;;;;;;;19.92;10.05;;;;;;;;;;6210334;28;20048;-77
2022/03/09 07:25:45;;;;;;;16.08;9.20;;;;;;;;;;6213337;28;20067;-77
2022/03/09 07:28:47;;;;;;;36.43;11.60;;;;;;;;;;6215648;28;20200;-76
2022/03/09 07:31:49;;;;;;;74.68;21.73;;;;;;;;;;6214806;28;20065;-77
2022/03/09 07:34:51;;;;;;;32.50;11.73;;;;;;;;;;6216733;28;20110;-78
2022/03/09 07:37:53;;;;;;;29.30;11.63;;;;;;;;;;6214385;28;20045;-76
2022/03/09 07:40:55;;;;;;;26.30;12.68;;;;;;;;;;6217175;28;20149;-78
2022/03/09 07:43:56;;;;;;;26.58;11.07;;;;;;;;;;6231868;28;20133;-79
2022/03/09 07:46:58;;;;;;;29.17;11.60;;;;;;;;;;6230221;28;20120;-78
2022/03/09 07:50:00;;;;;;;30.85;12.38;;;;;;;;;;6238737;28;20142;-78
2022/03/09 07:53:03;;;;;;;38.25;15.93;;;;;;;;;;6216984;28;20124;-77
2022/03/09 07:56:04;;;;;;;34.73;15.70;;;;;;;;;;6215667;28;20129;-79
2022/03/09 07:59:08;;;;;;;35.97;17.58;;;;;;;;;;6216900;28;20053;-78
2022/03/09 08:02:10;;;;;;;27.42;12.32;;;;;;;;;;6214291;28;20052;-77
2022/03/09 08:05:12;;;;;;;29.85;11.82;;;;;;;;;;6223748;28;20095;-78
2022/03/09 08:08:14;;;;;;;25.17;11.38;;;;;;;;;;6214110;28;20065;-77
2022/03/09 08:11:15;;;;;;;23.55;11.52;;;;;;;;;;6211648;28;20081;-77
2022/03/09 08:14:17;;;;;;;20.55;10.02;;;;;;;;;;6189455;28;20108;-77
2022/03/09 08:17:19;;;;;;;16.95;7.82;;;;;;;;;;6214561;28;20049;-76
2022/03/09 08:20:21;;;;;;;17.35;9.30;;;;;;;;;;6219576;28;20406;-76
2022/03/09 08:23:23;;;;;;;23.10;10.15;;;;;;;;;;6239358;28;20120;-76
2022/03/09 08:26:25;;;;;;;18.15;8.80;;;;;;;;;;6220278;28;20134;-77
2022/03/09 08:29:27;;;;;;;14.88;8.13;;;;;;;;;;6229648;28;20613;-79
2022/03/09 08:32:28;;;;;;;15.45;8.05;;;;;;;;;;6214360;28;20192;-79
2022/03/09 08:35:30;;;;;;;16.00;7.90;;;;;;;;;;6217360;28;20137;-78
2022/03/09 08:38:32;;;;;;;14.77;7.70;;;;;;;;;;6213941;28;20127;-80
2022/03/09 08:41:33;;;;;;;19.05;7.13;;;;;;;;;;6216248;28;20096;-79
2022/03/09 08:44:41;;;;;;;15.27;7.50;;;;;;;;;;6219054;28;20045;-80
2022/03/09 08:47:43;;;;;;;15.98;7.85;;;;;;;;;;6220348;28;20046;-81
2022/03/09 08:50:45;;;;;;;17.40;8.68;;;;;;;;;;6236142;28;20506;-77
2022/03/09 08:53:48;;;;;;;14.98;7.60;;;;;;;;;;6217517;28;20050;-80
2022/03/09 08:56:49;;;;;;;14.38;8.02;;;;;;;;;;6217626;28;20108;-80
2022/03/09 08:59:51;;;;;;;16.30;6.78;;;;;;;;;;6212021;28;20101;-79
2022/03/09 09:02:53;;;;;;;12.88;6.45;;;;;;;;;;6215729;28;20056;-79
2022/03/09 09:05:55;;;;;;;11.95;6.25;;;;;;;;;;6223452;28;20081;-79
2022/03/09 09:08:58;;;;;;;11.65;6.03;;;;;;;;;;6214917;28;20046;-78
2022/03/09 09:12:01;;;;;;;11.80;6.13;;;;;;;;;;6212586;28;20519;-77
2022/03/09 09:15:04;;;;;;;13.18;6.85;;;;;;;;;;6213947;28;20057;-78
2022/03/09 09:18:06;;;;;;;15.15;9.38;;;;;;;;;;6215001;28;20050;-78
2022/03/09 09:21:23;;;;;;;11.35;6.82;;;;;;;;;;6245873;28;20056;-77
2022/03/09 09:24:24;;;;;;;;;;;;;;;;;;6221246;28;20181;-79
2022/03/09 09:27:26;;;;;;;16.48;9.32;;;;;;;;;;6220062;28;20379;-76
2022/03/09 09:30:48;;;;;;;14.02;6.90;;;;;;;;;;6220028;28;20057;-77
2022/03/09 09:33:50;;;;;;;14.68;9.45;;;;;;;;;;6224050;28;20716;-78
2022/03/09 09:36:52;;;;;;;13.20;7.03;;;;;;;;;;6220938;28;20061;-79
2022/03/09 09:39:54;;;;;;;17.98;9.75;;;;;;;;;;6224793;28;20127;-77
2022/03/09 09:42:55;;;;;;;17.80;8.65;;;;;;;;;;6233480;28;20125;-78
2022/03/09 09:45:57;;;;;;;14.77;7.15;;;;;;;;;;6233288;28;20140;-78
2022/03/09 09:48:59;;;;;;;29.73;13.93;;;;;;;;;;6243889;28;20124;-79
2022/03/09 09:52:01;;;;;;;13.70;5.95;;;;;;;;;;6230344;28;20034;-80
2022/03/09 09:55:04;;;;;;;26.83;13.20;;;;;;;;;;6233287;28;20574;-78
2022/03/09 09:58:06;;;;;;;;;;;;;;;;;;6218473;28;20050;-77
2022/03/09 10:01:08;;;;;;;21.70;10.48;;;;;;;;;;6214636;28;19925;-76
2022/03/09 10:04:10;;;;;;;8.77;5.25;;;;;;;;;;6222795;28;20057;-76
2022/03/09 10:07:12;;;;;;;10.40;7.20;;;;;;;;;;6220314;28;20073;-76
2022/03/09 10:10:17;;;;;;;14.75;7.70;;;;;;;;;;6220289;28;20044;-77
2022/03/09 10:13:24;;;;;;;8.75;5.53;;;;;;;;;;6219452;28;20042;-77
2022/03/09 10:16:30;;;;;;;10.95;6.35;;;;;;;;;;6216979;28;20116;-77
2022/03/09 10:19:36;;;;;;;15.77;7.93;;;;;;;;;;6221314;28;20045;-77
2022/03/09 10:22:45;;;;;;;14.75;8.25;;;;;;;;;;6220320;28;20045;-77
2022/03/09 10:26:02;;;;;;;16.38;9.50;;;;;;;;;;6246009;28;20087;-78
2022/03/09 10:29:05;;;;;;;12.25;7.47;;;;;;;;;;6222227;28;20097;-77
2022/03/09 10:32:07;;;;;;;9.82;6.07;;;;;;;;;;6219418;28;20065;-78
2022/03/09 10:35:09;;;;;;;16.80;9.05;;;;;;;;;;6221268;28;20157;-77
2022/03/09 10:38:14;;;;;;;7.93;5.70;;;;;;;;;;6235215;28;20113;-78
2022/03/09 10:41:32;;;;;;;10.27;5.82;;;;;;;;;;6233002;28;20050;-76
2022/03/09 10:44:41;;;;;;;11.07;7.40;;;;;;;;;;6215653;28;20083;-78
2022/03/09 10:47:45;;;;;;;9.63;6.35;;;;;;;;;;6217916;28;20053;-76
2022/03/09 10:50:54;;;;;;;9.20;5.53;;;;;;;;;;6217987;28;20125;-76
2022/03/09 10:53:58;;;;;;;9.30;5.25;;;;;;;;;;6218994;28;20108;-75
2022/03/09 10:57:03;;;;;;;8.57;5.40;;;;;;;;;;6201003;28;20046;-77
2022/03/09 11:00:05;;;;;;;8.68;5.28;;;;;;;;;;6213874;28;20511;-76
2022/03/09 11:03:10;;;;;;;8.07;5.37;;;;;;;;;;6253648;28;20069;-79
2022/03/09 11:06:14;;;;;;;11.27;5.80;;;;;;;;;;6223361;28;20522;-76
2022/03/09 11:09:18;;;;;;;10.48;5.40;;;;;;;;;;6225567;28;20038;-77
2022/03/09 11:12:19;;;;;;;9.57;5.63;;;;;;;;;;6222075;28;20068;-78
2022/03/09 11:15:21;;;;;;;11.20;5.70;;;;;;;;;;6223140;28;20050;-79
2022/03/09 11:18:29;;;;;;;7.00;5.07;;;;;;;;;;6224325;28;20046;-78
2022/03/09 11:21:31;;;;;;;8.43;5.30;;;;;;;;;;6224415;28;20038;-77
2022/03/09 11:24:37;;;;;;;8.00;5.60;;;;;;;;;;6220707;28;20066;-76
2022/03/09 11:27:45;;;;;;;9.25;5.38;;;;;;;;;;6228717;28;20119;-77
2022/03/09 11:30:58;;;;;;;8.68;5.55;;;;;;;;;;6243596;28;20057;-78
2022/03/09 11:34:00;;;;;;;8.50;5.45;;;;;;;;;;6245905;28;20128;-78
2022/03/09 11:37:13;;;;;;;7.68;5.13;;;;;;;;;;6230496;28;20064;-77
2022/03/09 11:40:15;;;;;;;11.15;5.47;;;;;;;;;;6221276;28;20096;-79
2022/03/09 11:43:27;;;;;;;10.00;5.78;;;;;;;;;;6220631;28;20073;-79
2022/03/09 11:46:59;;;;;;;9.93;5.72;;;;;;;;;;6222186;28;20065;-79
2022/03/09 11:50:06;;;;;;;9.80;5.80;;;;;;;;;;6210475;28;20104;-78
2022/03/09 11:53:08;;;;;;;8.88;5.63;;;;;;;;;;6230086;28;20041;-76
2022/03/09 11:56:29;;;;;;;10.05;6.30;;;;;;;;;;6228375;28;20041;-76
2022/03/09 11:59:30;;;;;;;9.35;6.05;;;;;;;;;;6226217;28;20125;-77
2022/03/09 12:02:43;;;;;;;9.88;5.93;;;;;;;;;;6212163;28;20057;-77
2022/03/09 12:05:45;;;;;;;11.75;6.47;;;;;;;;;;6214068;28;20046;-79
2022/03/09 12:08:47;;;;;;;9.65;6.13;;;;;;;;;;6223017;28;20088;-79
2022/03/09 12:12:10;;;;;;;8.82;6.13;;;;;;;;;;6231992;28;20089;-79
2022/03/09 12:15:14;;;;;;;10.50;5.85;;;;;;;;;;6222162;28;20041;-77
2022/03/09 12:18:35;;;;;;;10.57;6.40;;;;;;;;;;6224169;28;20053;-80
2022/03/09 12:22:00;;;;;;;12.02;6.90;;;;;;;;;;6220762;28;20045;-77
2022/03/09 12:25:33;;;;;;;9.30;5.00;;;;;;;;;;6236006;28;20128;-80
2022/03/09 12:28:35;;;;;;;7.63;5.13;;;;;;;;;;6221427;28;20098;-78
2022/03/09 12:31:36;;;;;;;8.88;5.93;;;;;;;;;;6220412;28;20049;-80
2022/03/09 12:34:49;;;;;;;11.73;5.63;;;;;;;;;;6219987;28;20054;-79
2022/03/09 12:37:51;;;;;;;11.20;5.32;;;;;;;;;;6221318;28;20045;-80
2022/03/09 12:40:53;;;;;;;8.27;5.40;;;;;;;;;;6221912;28;20125;-79
2022/03/09 12:43:57;;;;;;;11.57;5.72;;;;;;;;;;6221534;28;20491;-79
2022/03/09 12:47:03;;;;;;;8.40;6.00;;;;;;;;;;6223292;28;20069;-80
2022/03/09 12:50:06;;;;;;;13.32;5.50;;;;;;;;;;6247257;28;20446;-80
2022/03/09 12:53:09;;;;;;;8.35;5.43;;;;;;;;;;6245598;28;20045;-76
2022/03/09 12:56:19;;;;;;;8.10;5.03;;;;;;;;;;6250883;28;20049;-80
2022/03/09 12:59:36;;;;;;;7.88;5.85;;;;;;;;;;6219549;28;20100;-79
2022/03/09 13:02:42;;;;;;;8.73;5.95;;;;;;;;;;6220652;28;20133;-78
2022/03/09 13:05:44;;;;;;;10.07;5.88;;;;;;;;;;6239427;28;20041;-78
2022/03/09 13:08:46;;;;;;;9.50;5.97;;;;;;;;;;6224792;28;20094;-78
2022/03/09 13:11:48;;;;;;;10.50;6.43;;;;;;;;;;6234330;28;20518;-78
2022/03/09 13:14:52;;;;;;;10.98;6.22;;;;;;;;;;6219653;28;20046;-80
2022/03/09 13:17:55;;;;;;;9.82;6.05;;;;;;;;;;6219525;28;20115;-79
2022/03/09 13:21:00;;;;;;;8.80;6.15;;;;;;;;;;6217047;28;20057;-80
2022/03/09 13:24:04;;;;;;;10.57;6.45;;;;;;;;;;6223443;28;20121;-79
2022/03/09 13:27:18;;;;;;;8.90;5.97;;;;;;;;;;6226696;28;20137;-78
2022/03/09 13:30:22;;;;;;;9.65;6.47;;;;;;;;;;6225457;28;20647;-79
2022/03/09 13:33:24;;;;;;;8.88;6.13;;;;;;;;;;6224387;28;20046;-78
2022/03/09 13:36:26;;;;;;;8.60;5.70;;;;;;;;;;6222147;28;20044;-80
2022/03/09 13:39:42;;;;;;;10.75;5.68;;;;;;;;;;6228277;28;20046;-77
2022/03/09 13:42:44;;;;;;;7.47;5.18;;;;;;;;;;6259865;28;20045;-79
2022/03/09 13:45:46;;;;;;;10.38;6.15;;;;;;;;;;6230524;28;20073;-80
2022/03/09 13:49:06;;;;;;;10.98;6.47;;;;;;;;;;6240742;28;20081;-78
2022/03/09 13:52:28;;;;;;;9.00;5.78;;;;;;;;;;6229767;28;20060;-78
2022/03/09 13:55:29;;;;;;;12.02;6.47;;;;;;;;;;6219471;28;22237;-80
2022/03/09 13:58:40;;;;;;;9.57;6.43;;;;;;;;;;6222276;28;20049;-81
2022/03/09 14:01:42;;;;;;;10.77;6.78;;;;;;;;;;6210054;28;20501;-79
2022/03/09 14:04:45;;;;;;;8.85;6.40;;;;;;;;;;6221217;28;20046;-78
2022/03/09 14:07:47;;;;;;;9.85;6.45;;;;;;;;;;6232726;28;20057;-80
2022/03/09 14:10:50;;;;;;;9.68;6.80;;;;;;;;;;6241502;28;20053;-80
2022/03/09 14:14:01;;;;;;;9.82;6.45;;;;;;;;;;6221666;28;20077;-80
2022/03/09 14:17:04;;;;;;;13.75;7.38;;;;;;;;;;6218668;28;20085;-79
2022/03/09 14:20:10;;;;;;;10.57;6.45;;;;;;;;;;6207635;28;20054;-79
2022/03/09 14:23:12;;;;;;;13.82;7.05;;;;;;;;;;6239649;28;20068;-78
2022/03/09 14:26:15;;;;;;;10.43;7.00;;;;;;;;;;6210225;28;20570;-78
2022/03/09 14:29:17;;;;;;;9.77;6.53;;;;;;;;;;6215353;28;20097;-78
2022/03/09 14:32:20;;;;;;;10.88;7.13;;;;;;;;;;6217822;28;20045;-79
2022/03/09 14:35:22;;;;;;;11.57;7.00;;;;;;;;;;6218172;28;20133;-78
2022/03/09 14:38:27;;;;;;;10.85;6.80;;;;;;;;;;6197961;28;20770;-79
2022/03/09 14:41:28;;;;;;;10.07;6.72;;;;;;;;;;6220715;28;20089;-78
2022/03/09 14:44:31;;;;;;;11.65;7.00;;;;;;;;;;6223066;28;20073;-79
2022/03/09 14:47:32;;;;;;;11.68;6.63;;;;;;;;;;6233108;28;20065;-79
2022/03/09 14:50:34;;;;;;;16.13;11.85;;;;;;;;;;6225494;28;20084;-81
2022/03/09 14:53:36;;;;;;;10.60;6.93;;;;;;;;;;6217590;28;20072;-77
2022/03/09 14:56:38;;;;;;;13.07;7.70;;;;;;;;;;6236644;28;20038;-79
2022/03/09 14:59:40;;;;;;;10.85;6.43;;;;;;;;;;6221052;28;20483;-78
2022/03/09 15:02:42;;;;;;;10.85;6.60;;;;;;;;;;6235110;28;20125;-81
2022/03/09 15:05:44;;;;;;;15.57;8.27;;;;;;;;;;6227641;28;20054;-79
2022/03/09 15:08:47;;;;;;;18.08;9.57;;;;;;;;;;6225453;28;20104;-80
2022/03/09 15:11:49;;;;;;;11.85;7.32;;;;;;;;;;6227291;28;20495;-77
2022/03/09 15:14:50;;;;;;;11.65;7.10;;;;;;;;;;6250001;28;20498;-81
2022/03/09 15:17:52;;;;;;;11.95;7.57;;;;;;;;;;6233458;28;20502;-78
2022/03/09 15:20:54;;;;;;;9.65;6.43;;;;;;;;;;6225509;28;20049;-78
2022/03/09 15:23:55;;;;;;;9.32;6.45;;;;;;;;;;6239184;28;20038;-80
2022/03/09 15:26:58;;;;;;;10.02;6.18;;;;;;;;;;6246485;28;20124;-81
2022/03/09 15:30:00;;;;;;;11.77;6.53;;;;;;;;;;6208895;28;20053;-79
2022/03/09 15:33:02;;;;;;;9.38;6.05;;;;;;;;;;6226955;28;20045;-82
2022/03/09 15:36:04;;;;;;;11.77;6.85;;;;;;;;;;6238460;28;20072;-80
2022/03/09 15:39:05;;;;;;;10.00;6.40;;;;;;;;;;6237599;28;20057;-79
2022/03/09 15:42:07;;;;;;;13.43;6.85;;;;;;;;;;6216184;28;20046;-80
2022/03/09 15:45:10;;;;;;;10.25;6.90;;;;;;;;;;6209772;28;20061;-78
2022/03/09 15:48:11;;;;;;;9.63;6.20;;;;;;;;;;6222488;28;20113;-79
2022/03/09 15:51:17;;;;;;;9.80;5.82;;;;;;;;;;6229641;28;20205;-82
2022/03/09 15:54:18;;;;;;;9.35;6.38;;;;;;;;;;6232307;28;20053;-80
2022/03/09 15:57:20;;;;;;;11.25;6.00;;;;;;;;;;6239683;28;20045;-80
2022/03/09 16:00:23;;;;;;;9.75;6.18;;;;;;;;;;6241531;28;20037;-80
2022/03/09 16:03:24;;;;;;;9.48;5.93;;;;;;;;;;6226766;28;20507;-80
2022/03/09 16:06:26;;;;;;;10.48;6.15;;;;;;;;;;6243285;28;20041;-83
2022/03/09 16:09:29;;;;;;;9.90;6.05;;;;;;;;;;6241611;28;20086;-78
2022/03/09 16:12:31;;;;;;;10.93;6.47;;;;;;;;;;6231888;28;20045;-80
2022/03/09 16:15:32;;;;;;;11.10;5.88;;;;;;;;;;6250172;28;20082;-81
2022/03/09 16:18:36;;;;;;;11.15;7.07;;;;;;;;;;6271148;28;20045;-79
2022/03/09 16:21:39;;;;;;;11.85;7.45;;;;;;;;;;6239014;28;20041;-81
2022/03/09 16:24:41;;;;;;;10.60;6.43;;;;;;;;;;6224438;28;20046;-79
2022/03/09 16:27:43;;;;;;;9.70;6.22;;;;;;;;;;6234561;28;20144;-81
2022/03/09 16:30:44;;;;;;;9.48;6.32;;;;;;;;;;6244535;28;20115;-80
2022/03/09 16:33:49;;;;;;;9.88;6.07;;;;;;;;;;6224185;28;20050;-81
2022/03/09 16:36:51;;;;;;;10.85;6.03;;;;;;;;;;6234624;28;20112;-80
2022/03/09 16:39:52;;;;;;;9.25;5.57;;;;;;;;;;6239577;28;20172;-82
2022/03/09 16:42:54;;;;;;;10.05;6.40;;;;;;;;;;6234200;28;20056;-78
2022/03/09 16:45:57;;;;;;;11.23;5.93;;;;;;;;;;6240556;28;20045;-79
2022/03/09 16:48:59;;;;;;;9.32;5.90;;;;;;;;;;6231187;28;20483;-80
2022/03/09 16:52:01;;;;;;;9.75;5.85;;;;;;;;;;6238185;28;20073;-80
2022/03/09 16:55:04;;;;;;;10.73;5.88;;;;;;;;;;6254378;28;20127;-77
2022/03/09 16:58:06;;;;;;;13.55;6.07;;;;;;;;;;6235611;28;20045;-80
2022/03/09 17:01:08;;;;;;;10.02;5.65;;;;;;;;;;6246453;28;20053;-79
2022/03/09 17:04:10;;;;;;;12.82;5.97;;;;;;;;;;6223292;28;20114;-78
2022/03/09 17:07:13;;;;;;;17.70;9.65;;;;;;;;;;6220866;28;20085;-77
2022/03/09 17:10:15;;;;;;;16.33;9.20;;;;;;;;;;6219130;28;20128;-80
2022/03/09 17:13:16;;;;;;;15.73;9.07;;;;;;;;;;6219720;28;20054;-79
2022/03/09 17:16:18;;;;;;;14.85;6.85;;;;;;;;;;6202147;28;20048;-79
2022/03/09 17:19:22;;;;;;;25.48;12.50;;;;;;;;;;6246765;28;20056;-77
2022/03/09 17:22:24;;;;;;;24.35;11.95;;;;;;;;;;6228631;28;20153;-78
2022/03/09 17:25:26;;;;;;;13.82;7.90;;;;;;;;;;6217914;28;20184;-79
2022/03/09 17:28:28;;;;;;;19.48;9.75;;;;;;;;;;6197211;28;20102;-80
2022/03/09 17:31:30;;;;;;;18.67;9.52;;;;;;;;;;6218804;28;20050;-79
2022/03/09 17:34:32;;;;;;;13.48;8.20;;;;;;;;;;6216615;28;20126;-80
2022/03/09 17:37:37;;;;;;;21.58;11.50;;;;;;;;;;6214789;28;20611;-81
2022/03/09 17:40:39;;;;;;;16.52;10.07;;;;;;;;;;6225414;28;20077;-79
2022/03/09 17:43:41;;;;;;;19.20;11.25;;;;;;;;;;6240536;28;20510;-79
2022/03/09 17:46:43;;;;;;;20.63;11.70;;;;;;;;;;6241329;28;20053;-80
2022/03/09 17:49:44;;;;;;;15.02;8.82;;;;;;;;;;6241505;28;20048;-80
2022/03/09 17:52:46;;;;;;;16.27;8.32;;;;;;;;;;6221041;28;20588;-80
2022/03/09 17:55:49;;;;;;;12.30;7.60;;;;;;;;;;6213736;28;20108;-79
2022/03/09 17:58:51;;;;;;;15.55;8.05;;;;;;;;;;6214488;28;20045;-79
2022/03/09 18:01:59;;;;;;;62.17;21.73;;;;;;;;;;6211758;28;20053;-79
2022/03/09 18:05:02;;;;;;;22.95;12.80;;;;;;;;;;6215846;28;20050;-79